Time;durP1;ratioP1;P1;durP2;ratioP2;P2;SDS_P1;SDS_P2;PMS_P1;PMS_P2;Temp;Humidity;BMP_temperature;BMP_pressure;BME280_temperature;BME280_humidity;BME280_pressure;Samples;Min_cycle;Max_cycle;Signal;HPM_P1;HPM_P2
2023/10/07 00:00:38;;;;;;;15.95;7.82;;;9.80;99.90;;;;;;4870107;29;20098;-75
2023/10/07 00:03:06;;;;;;;14.68;7.80;;;9.80;99.90;;;;;;4881455;29;20041;-76
2023/10/07 00:05:35;;;;;;;12.73;6.95;;;9.70;99.90;;;;;;4889023;29;20398;-75
2023/10/07 00:08:08;;;;;;;13.52;7.53;;;9.70;99.90;;;;;;4871919;29;20025;-76
2023/10/07 00:10:37;;;;;;;14.82;6.85;;;9.70;99.90;;;;;;4888931;29;20100;-75
2023/10/07 00:13:09;;;;;;;11.25;6.13;;;9.60;99.90;;;;;;4888423;29;20033;-75
2023/10/07 00:15:39;;;;;;;11.45;6.75;;;9.60;99.90;;;;;;4887546;29;20363;-76
2023/10/07 00:18:11;;;;;;;14.70;7.18;;;9.60;99.90;;;;;;4880218;29;20044;-75
2023/10/07 00:21:02;;;;;;;13.90;7.93;;;9.60;99.90;;;;;;4882251;29;20319;-76
2023/10/07 00:23:28;;;;;;;12.48;7.00;;;9.60;99.90;;;;;;4888058;29;20112;-74
2023/10/07 00:25:55;;;;;;;13.55;7.03;;;9.60;99.90;;;;;;4873840;29;20029;-75
2023/10/07 00:28:32;;;;;;;12.93;6.43;;;9.50;99.90;;;;;;4892411;29;20162;-75
2023/10/07 07:02:43;;;;;;;8.00;4.75;;;11.30;99.90;;;;;;5100919;23;20350;-74
2023/10/07 07:05:14;;;;;;;9.52;5.00;;;11.50;99.90;;;;;;4902668;29;20033;-74
2023/10/07 07:07:41;;;;;;;12.02;4.97;;;11.70;99.90;;;;;;4888991;29;20048;-76
2023/10/07 07:10:08;;;;;;;10.38;4.78;;;11.70;99.90;;;;;;4881396;29;20032;-74
2023/10/07 07:12:33;;;;;;;11.60;5.35;;;11.70;99.90;;;;;;4889800;29;20096;-74
2023/10/07 07:15:26;;;;;;;10.55;4.60;;;11.80;99.90;;;;;;4890197;29;20076;-78
2023/10/07 07:18:02;;;;;;;9.43;4.28;;;12.00;99.90;;;;;;4894381;29;20025;-75
2023/10/07 07:23:15;;;;;;;18.05;5.55;;;12.40;99.90;;;;;;4880237;29;20045;-77
2023/10/07 07:25:49;;;;;;;9.25;4.97;;;12.40;99.90;;;;;;4873333;29;20189;-78
2023/10/07 07:28:17;;;;;;;9.05;4.72;;;12.30;99.90;;;;;;4873242;29;20031;-78
2023/10/07 07:30:45;;;;;;;8.85;4.35;;;12.20;99.90;;;;;;4890932;29;20278;-75
2023/10/07 07:33:28;;;;;;;8.68;4.50;;;12.20;99.90;;;;;;4904466;29;20021;-76
2023/10/07 07:35:57;;;;;;;10.40;5.18;;;12.20;99.90;;;;;;4881945;29;20063;-76
2023/10/07 07:40:50;;;;;;;11.07;4.95;;;12.30;99.80;;;;;;4908087;29;20028;-78
2023/10/07 07:43:19;;;;;;;10.23;5.10;;;12.30;99.80;;;;;;4891476;29;20036;-77
2023/10/07 07:45:56;;;;;;;9.77;4.47;;;12.30;99.90;;;;;;4907652;29;20138;-78
2023/10/07 07:48:26;;;;;;;9.15;4.63;;;12.40;99.90;;;;;;4889707;29;20033;-78
2023/10/07 07:50:54;;;;;;;10.70;5.20;;;12.50;99.90;;;;;;4889464;29;20049;-75
2023/10/07 07:53:20;;;;;;;10.13;4.85;;;12.70;99.90;;;;;;4889498;29;20305;-76
2023/10/07 07:55:46;;;;;;;9.95;4.95;;;12.80;99.80;;;;;;4886955;29;20037;-77
2023/10/07 07:58:12;;;;;;;9.32;4.55;;;12.90;99.50;;;;;;4902011;29;20272;-76
2023/10/07 08:00:44;;;;;;;9.07;4.75;;;13.10;99.40;;;;;;4907333;29;20024;-78
2023/10/07 08:03:16;;;;;;;14.18;4.95;;;13.40;98.90;;;;;;4906746;29;20056;-78
2023/10/07 08:05:42;;;;;;;14.30;5.47;;;13.60;98.70;;;;;;4907368;29;20033;-76
2023/10/07 08:08:25;;;;;;;19.02;5.85;;;13.90;98.30;;;;;;4907566;29;20020;-79
2023/10/07 08:10:54;;;;;;;11.63;5.15;;;14.20;97.80;;;;;;4907626;29;20087;-76
2023/10/07 08:13:29;;;;;;;10.77;5.15;;;14.60;96.60;;;;;;4907240;29;20334;-78
2023/10/07 08:15:56;;;;;;;8.23;4.85;;;14.90;95.20;;;;;;4907637;29;20095;-78
2023/10/07 08:18:31;;;;;;;10.40;5.13;;;15.00;94.50;;;;;;4889896;29;20104;-76
2023/10/07 08:21:06;;;;;;;12.30;5.82;;;15.10;94.30;;;;;;4887627;29;20090;-79
2023/10/07 08:23:51;;;;;;;11.27;5.18;;;15.10;93.80;;;;;;4890675;29;20052;-77
2023/10/07 08:29:40;;;;;;;9.68;4.63;;;15.00;93.70;;;;;;4904705;29;20345;-78
2023/10/07 08:32:34;;;;;;;8.43;4.65;;;15.00;93.90;;;;;;4906924;29;20317;-76
2023/10/07 08:34:59;;;;;;;10.15;5.18;;;15.00;93.90;;;;;;4890142;29;20067;-78
2023/10/07 08:37:32;;;;;;;10.97;5.53;;;15.10;93.80;;;;;;4874604;29;20036;-77
2023/10/07 08:40:15;;;;;;;9.25;4.57;;;15.30;93.50;;;;;;4890674;29;20322;-79
2023/10/07 08:43:37;;;;;;;11.32;5.70;;;15.60;93.10;;;;;;4907426;29;20029;-77
2023/10/07 08:46:33;;;;;;;9.30;4.95;;;15.90;92.60;;;;;;4832022;29;20046;-79
2023/10/07 08:49:05;;;;;;;8.63;4.80;;;16.30;91.70;;;;;;4804745;29;20346;-77
2023/10/07 08:51:41;;;;;;;11.05;5.30;;;16.40;91.30;;;;;;4805562;29;20159;-78
2023/10/07 08:57:23;;;;;;;11.32;5.20;;;16.60;91.00;;;;;;4822419;29;20048;-79
2023/10/07 08:59:52;;;;;;;8.10;4.88;;;16.70;90.70;;;;;;4834500;29;20092;-78
2023/10/07 09:02:27;;;;;;;10.55;4.45;;;16.80;90.50;;;;;;4819138;29;20056;-79
2023/10/07 09:04:55;;;;;;;9.63;4.55;;;16.80;90.40;;;;;;4804446;29;20030;-79
2023/10/07 09:07:21;;;;;;;10.07;4.82;;;16.90;90.10;;;;;;4818994;29;20318;-79
2023/10/07 09:09:48;;;;;;;10.30;5.22;;;17.10;89.30;;;;;;4819400;29;20421;-76
2023/10/07 09:12:18;;;;;;;9.75;4.97;;;17.20;89.30;;;;;;4833961;29;20038;-78
2023/10/07 09:14:52;;;;;;;8.45;4.78;;;17.30;88.90;;;;;;4819439;29;20392;-80
2023/10/07 09:17:21;;;;;;;9.75;5.15;;;17.30;88.90;;;;;;4834156;29;20045;-77
2023/10/07 09:19:53;;;;;;;10.18;4.82;;;17.30;88.90;;;;;;4868962;29;20052;-78
2023/10/07 09:22:24;;;;;;;11.40;4.93;;;17.40;88.80;;;;;;4893068;29;20051;-78
2023/10/07 09:24:54;;;;;;;8.70;4.97;;;17.40;88.80;;;;;;4899092;29;20024;-76
2023/10/07 09:27:36;;;;;;;12.50;5.40;;;17.60;88.50;;;;;;4884298;29;20037;-75
2023/10/07 09:30:35;;;;;;;8.43;4.30;;;17.80;87.80;;;;;;4883428;29;20039;-77
2023/10/07 09:33:21;;;;;;;12.27;5.10;;;18.20;86.90;;;;;;4908355;29;20036;-79
2023/10/07 09:39:31;;;;;;;9.82;4.15;;;18.60;85.30;;;;;;4905226;29;20063;-81
2023/10/07 09:42:26;;;;;;;9.52;4.88;;;18.80;84.80;;;;;;4859299;29;20100;-75
2023/10/07 09:45:25;;;;;;;9.45;4.82;;;18.90;84.10;;;;;;4891190;29;20025;-76
2023/10/07 09:47:54;;;;;;;8.27;4.47;;;18.80;83.90;;;;;;4891023;29;20081;-75
2023/10/07 09:53:16;;;;;;;8.48;4.30;;;18.60;84.60;;;;;;4898132;29;20047;-77
2023/10/07 09:56:11;;;;;;;9.30;4.63;;;18.60;84.80;;;;;;4897499;29;20111;-78
2023/10/07 09:59:00;;;;;;;9.18;4.20;;;18.50;85.90;;;;;;4908794;29;20092;-77
2023/10/07 10:01:46;;;;;;;9.52;5.00;;;18.60;85.60;;;;;;4876667;29;20045;-79
2023/10/07 10:04:32;;;;;;;9.43;5.00;;;18.90;85.50;;;;;;4877728;29;20043;-80
2023/10/07 10:07:28;;;;;;;12.13;4.70;;;19.10;84.50;;;;;;4892744;29;20038;-78
2023/10/07 10:10:07;;;;;;;8.98;4.57;;;19.40;83.70;;;;;;4893146;29;20322;-78
2023/10/07 10:18:05;;;;;;;9.18;4.72;;;20.20;80.80;;;;;;4909418;29;20032;-79
2023/10/07 10:20:43;;;;;;;9.52;4.15;;;20.40;80.10;;;;;;4908594;29;20365;-79
2023/10/07 10:23:19;;;;;;;8.95;4.13;;;20.50;80.00;;;;;;4909364;29;20025;-76
2023/10/07 10:25:50;;;;;;;11.38;4.30;;;20.30;79.10;;;;;;4885876;29;20048;-78
2023/10/07 10:28:29;;;;;;;9.13;4.13;;;20.50;79.50;;;;;;4890135;29;20033;-77
2023/10/07 10:30:55;;;;;;;9.90;4.47;;;20.70;78.50;;;;;;4872785;29;20175;-76
2023/10/07 10:33:32;;;;;;;9.43;4.15;;;20.70;78.60;;;;;;4888134;29;20028;-76
2023/10/07 10:36:01;;;;;;;8.23;4.13;;;20.90;77.70;;;;;;4890226;29;20112;-77
2023/10/07 10:38:41;;;;;;;;;;;21.00;78.00;;;;;;4908960;29;20036;-76
2023/10/07 10:41:08;;;;;;;9.48;4.60;;;21.10;77.70;;;;;;4875864;29;19916;-77
2023/10/07 10:43:34;;;;;;;8.65;4.55;;;20.90;76.70;;;;;;4908595;29;20446;-78
2023/10/07 10:46:05;;;;;;;7.03;4.70;;;21.00;77.00;;;;;;4908826;29;20029;-76
2023/10/07 10:48:38;;;;;;;11.38;4.78;;;21.10;76.90;;;;;;4892716;29;20058;-78
2023/10/07 10:51:08;;;;;;;12.93;4.97;;;21.30;76.60;;;;;;4888853;29;20230;-78
2023/10/07 10:53:40;;;;;;;11.43;5.30;;;21.50;75.80;;;;;;4904159;29;20485;-79
2023/10/07 10:56:10;;;;;;;9.77;4.70;;;21.70;75.30;;;;;;4908822;29;20318;-77
2023/10/07 10:58:39;;;;;;;7.55;4.03;;;22.10;75.00;;;;;;4908086;29;20036;-78
2023/10/07 11:01:07;;;;;;;8.60;4.22;;;22.40;74.10;;;;;;4891496;29;20056;-78
2023/10/07 11:03:36;;;;;;;8.65;3.85;;;22.60;72.30;;;;;;4907089;29;20040;-78
2023/10/07 11:06:10;;;;;;;10.80;4.00;;;22.30;71.20;;;;;;4908501;29;20100;-78
2023/10/07 11:08:37;;;;;;;6.90;3.63;;;22.50;71.40;;;;;;4875534;29;20025;-78
2023/10/07 11:11:10;;;;;;;11.05;4.20;;;22.70;71.20;;;;;;4891948;29;20048;-80
2023/10/07 11:13:39;;;;;;;7.35;3.88;;;22.70;71.70;;;;;;4908508;29;20112;-79
2023/10/07 11:16:11;;;;;;;7.78;2.67;;;22.90;71.60;;;;;;4869683;29;20034;-77
2023/10/07 11:18:38;;;;;;;4.82;2.30;;;23.00;64.80;;;;;;4869573;29;20342;-77
2023/10/07 11:21:11;;;;;;;4.72;2.20;;;22.90;63.70;;;;;;4837928;29;20034;-77
2023/10/07 11:23:53;;;;;;;6.15;2.38;;;22.90;63.20;;;;;;4850745;29;20332;-77
2023/10/07 11:26:20;;;;;;;5.30;2.20;;;22.90;63.10;;;;;;4860640;29;20053;-78
2023/10/07 11:28:48;;;;;;;4.90;2.10;;;23.00;63.90;;;;;;4869759;29;20104;-78
2023/10/07 11:31:30;;;;;;;5.22;2.22;;;23.10;62.70;;;;;;4869177;29;20038;-77
2023/10/07 11:33:57;;;;;;;6.53;2.50;;;23.10;62.40;;;;;;4852126;29;20034;-76
2023/10/07 11:36:28;;;;;;;5.85;2.20;;;22.90;62.60;;;;;;4835549;29;20037;-79
2023/10/07 11:38:56;;;;;;;5.00;2.55;;;22.80;61.90;;;;;;4836118;29;20037;-78
2023/10/07 11:41:21;;;;;;;6.32;2.55;;;22.50;62.40;;;;;;4864985;29;20078;-76
2023/10/07 11:43:48;;;;;;;4.32;2.17;;;22.50;62.70;;;;;;4869056;29;20045;-77
2023/10/07 11:46:14;;;;;;;4.57;2.08;;;22.40;63.00;;;;;;4859585;29;20029;-76
2023/10/07 11:48:52;;;;;;;4.65;2.30;;;22.40;64.00;;;;;;4907820;29;20310;-79
2023/10/07 11:51:17;;;;;;;7.00;3.10;;;22.50;63.40;;;;;;4891464;29;20029;-78
2023/10/07 11:53:43;;;;;;;6.60;2.30;;;22.20;62.90;;;;;;4876155;29;20025;-75
2023/10/07 11:56:12;;;;;;;7.50;2.55;;;22.30;62.60;;;;;;4876100;29;20035;-77
2023/10/07 11:58:41;;;;;;;4.47;2.20;;;22.40;63.30;;;;;;4890921;29;20027;-77
2023/10/07 12:01:07;;;;;;;5.53;2.37;;;22.50;62.80;;;;;;4890984;29;20134;-77
2023/10/07 12:03:34;;;;;;;4.97;2.25;;;22.50;62.40;;;;;;4907515;29;20413;-77
2023/10/07 12:06:00;;;;;;;4.75;2.17;;;22.50;63.10;;;;;;4875718;29;20032;-76
2023/10/07 12:08:26;;;;;;;6.57;2.55;;;22.70;63.10;;;;;;4907287;29;20210;-76
2023/10/07 12:10:52;;;;;;;4.55;2.08;;;22.70;62.50;;;;;;4907765;29;20040;-78
2023/10/07 12:13:19;;;;;;;7.22;2.25;;;22.90;63.30;;;;;;4875829;29;20020;-74
2023/10/07 12:15:46;;;;;;;4.82;2.15;;;23.00;62.50;;;;;;4875632;29;20032;-76
2023/10/07 12:18:19;;;;;;;5.80;2.53;;;23.20;62.00;;;;;;4875608;29;20036;-74
2023/10/07 12:20:45;;;;;;;5.32;1.95;;;23.00;62.00;;;;;;4909576;29;20040;-76
2023/10/07 12:23:11;;;;;;;5.07;2.60;;;22.80;62.30;;;;;;4913912;29;20024;-77
2023/10/07 12:25:37;;;;;;;5.50;2.50;;;22.60;62.80;;;;;;4876884;29;20029;-77
2023/10/07 12:28:08;;;;;;;5.72;2.70;;;22.40;63.10;;;;;;4896861;29;20029;-76
2023/10/07 12:30:35;;;;;;;6.80;2.70;;;22.60;63.60;;;;;;4884226;29;20032;-76
2023/10/07 12:33:04;;;;;;;7.28;2.33;;;22.50;63.50;;;;;;4895194;29;20037;-76
2023/10/07 12:35:31;;;;;;;4.85;2.55;;;22.60;62.90;;;;;;4910296;29;20020;-77
2023/10/07 12:37:59;;;;;;;4.85;2.60;;;22.80;63.10;;;;;;4911031;29;20041;-75
2023/10/07 12:40:28;;;;;;;5.03;2.38;;;22.70;62.80;;;;;;4905661;29;20089;-74
2023/10/07 12:43:06;;;;;;;6.50;2.30;;;22.80;63.60;;;;;;4893362;29;20032;-77
2023/10/07 12:45:34;;;;;;;5.88;2.85;;;22.90;63.10;;;;;;4874884;29;20115;-76
2023/10/07 12:48:18;;;;;;;5.40;2.20;;;22.90;63.00;;;;;;4892184;29;20037;-77
2023/10/07 12:50:55;;;;;;;4.45;2.30;;;22.90;62.80;;;;;;4890066;29;20056;-78
2023/10/07 12:53:23;;;;;;;6.65;2.50;;;23.00;62.80;;;;;;4857736;29;20226;-78
2023/10/07 12:55:56;;;;;;;5.75;2.65;;;23.30;62.50;;;;;;4846316;29;20081;-76
2023/10/07 12:58:26;;;;;;;4.78;2.30;;;23.50;61.60;;;;;;4874339;29;20273;-75
2023/10/07 13:00:53;;;;;;;5.38;2.53;;;23.90;60.70;;;;;;4890156;29;20108;-76
2023/10/07 13:03:20;;;;;;;5.15;2.70;;;24.10;60.40;;;;;;4890390;29;20246;-76
2023/10/07 13:05:45;;;;;;;6.18;2.90;;;24.40;59.70;;;;;;4889790;29;20029;-77
2023/10/07 13:08:14;;;;;;;7.90;2.55;;;24.90;59.20;;;;;;4890295;29;20040;-76
2023/10/07 13:10:42;;;;;;;6.47;2.60;;;25.40;59.40;;;;;;4859783;29;20378;-76
2023/10/07 13:13:13;;;;;;;5.72;2.50;;;25.20;58.50;;;;;;4874456;29;20036;-74
2023/10/07 13:15:41;;;;;;;7.40;2.65;;;25.50;58.70;;;;;;4889510;29;20061;-76
2023/10/07 13:18:09;;;;;;;5.13;2.50;;;25.80;57.90;;;;;;4889816;29;20062;-75
2023/10/07 13:20:35;;;;;;;7.17;3.00;;;26.00;57.70;;;;;;4876592;29;20029;-77
2023/10/07 13:23:03;;;;;;;6.30;2.72;;;26.20;57.40;;;;;;4855922;29;20049;-77
2023/10/07 13:25:50;;;;;;;5.57;2.60;;;25.80;58.30;;;;;;4874627;29;20272;-75
2023/10/07 13:28:16;;;;;;;5.43;2.45;;;26.20;57.60;;;;;;4901411;29;20153;-77
2023/10/07 13:30:43;;;;;;;5.45;2.40;;;25.90;57.60;;;;;;4893110;29;20342;-75
2023/10/07 13:33:08;;;;;;;5.70;2.67;;;26.00;57.80;;;;;;4892954;29;20024;-74
2023/10/07 13:35:34;;;;;;;6.10;2.80;;;25.70;58.30;;;;;;4909831;29;20092;-75
2023/10/07 13:38:01;;;;;;;5.85;2.47;;;25.20;58.30;;;;;;4910086;29;20064;-76
2023/10/07 13:40:29;;;;;;;6.00;2.92;;;24.90;59.00;;;;;;4903889;29;20310;-75
2023/10/07 13:42:55;;;;;;;5.90;2.80;;;24.90;59.30;;;;;;4891206;29;20060;-76
2023/10/07 13:45:23;;;;;;;5.10;2.40;;;25.00;59.80;;;;;;4890266;29;20032;-74
2023/10/07 13:47:50;;;;;;;;;;;25.60;58.70;;;;;;4892069;29;20092;-78
2023/10/07 13:50:24;;;;;;;5.20;2.78;;;26.10;57.50;;;;;;4891295;29;20185;-76
2023/10/07 13:52:58;;;;;;;6.90;2.78;;;26.10;58.20;;;;;;4891135;29;20044;-76
2023/10/07 13:55:44;;;;;;;5.35;2.55;;;26.30;58.80;;;;;;4854809;29;20061;-74
2023/10/07 13:58:19;;;;;;;4.93;2.40;;;26.40;57.90;;;;;;4870605;29;20045;-75
2023/10/07 14:00:46;;;;;;;6.72;2.60;;;26.30;58.40;;;;;;4870149;29;20335;-78
2023/10/07 14:03:29;;;;;;;5.05;2.60;;;26.20;58.10;;;;;;4855005;29;20053;-76
2023/10/07 14:05:55;;;;;;;6.07;3.05;;;26.50;58.30;;;;;;4818509;29;20055;-74
2023/10/07 14:08:24;;;;;;;5.60;2.55;;;26.30;57.50;;;;;;4815565;29;20144;-75
2023/10/07 14:10:51;;;;;;;6.22;3.10;;;25.80;57.90;;;;;;4800067;29;20049;-76
2023/10/07 14:13:23;;;;;;;6.20;2.95;;;25.50;58.60;;;;;;4815097;29;20101;-75
2023/10/07 14:15:51;;;;;;;6.20;2.80;;;25.40;59.20;;;;;;4815006;29;20077;-76
2023/10/07 14:18:24;;;;;;;6.65;2.75;;;25.10;59.60;;;;;;4815483;29;20359;-76
2023/10/07 14:21:06;;;;;;;5.68;2.63;;;25.30;59.60;;;;;;4845982;29;20072;-76
2023/10/07 14:23:34;;;;;;;5.88;2.67;;;25.50;58.90;;;;;;4851287;29;20100;-73
2023/10/07 14:26:13;;;;;;;6.53;2.88;;;25.70;58.80;;;;;;4807971;29;20042;-76
2023/10/07 14:28:45;;;;;;;4.68;2.67;;;26.20;58.50;;;;;;4851705;29;20043;-78
2023/10/07 14:31:12;;;;;;;7.05;2.92;;;26.50;57.70;;;;;;4852070;29;20046;-80
2023/10/07 14:33:38;;;;;;;7.37;2.90;;;26.50;57.90;;;;;;4850974;29;20065;-77
2023/10/07 14:36:10;;;;;;;6.15;2.78;;;26.40;58.10;;;;;;4834375;29;20068;-76
2023/10/07 14:38:37;;;;;;;5.18;2.75;;;26.30;57.60;;;;;;4873025;29;20386;-75
2023/10/07 14:41:03;;;;;;;6.70;2.50;;;26.40;58.40;;;;;;4902428;29;20214;-75
2023/10/07 14:43:29;;;;;;;6.18;3.05;;;26.30;58.90;;;;;;4907316;29;20029;-74
2023/10/07 14:45:55;;;;;;;6.63;2.80;;;26.20;58.50;;;;;;4908762;29;20036;-76
2023/10/07 14:48:22;;;;;;;7.13;3.23;;;26.10;58.70;;;;;;4892348;29;20040;-75
2023/10/07 14:50:48;;;;;;;6.13;2.88;;;26.00;58.80;;;;;;4891348;29;20028;-76
2023/10/07 14:53:16;;;;;;;;;;;25.90;59.10;;;;;;4909171;29;20040;-75
2023/10/07 14:55:46;;;;;;;6.82;3.10;;;25.90;59.20;;;;;;4908128;29;20101;-75
2023/10/07 14:58:13;;;;;;;7.68;3.10;;;26.00;59.20;;;;;;4861063;29;20036;-74
2023/10/07 15:00:43;;;;;;;5.75;2.67;;;26.20;59.80;;;;;;4891179;29;20039;-75
2023/10/07 15:03:11;;;;;;;7.25;2.80;;;26.40;58.90;;;;;;4908587;29;20060;-74
2023/10/07 15:05:38;;;;;;;5.28;2.50;;;27.10;58.20;;;;;;4876038;29;20060;-75
2023/10/07 15:08:13;;;;;;;6.80;3.38;;;27.50;57.90;;;;;;4908558;29;20032;-75
2023/10/07 15:10:48;;;;;;;5.22;2.72;;;28.80;57.20;;;;;;4891400;29;20044;-75
2023/10/07 15:13:14;;;;;;;6.22;2.97;;;29.70;55.00;;;;;;4894142;29;20035;-75
2023/10/07 15:15:41;;;;;;;6.70;3.33;;;30.20;54.30;;;;;;4894113;29;20043;-75
2023/10/07 15:18:08;;;;;;;5.07;2.80;;;30.40;54.00;;;;;;4910302;29;20028;-75
2023/10/07 15:20:38;;;;;;;5.97;3.33;;;30.90;53.30;;;;;;4909906;29;20042;-74
2023/10/07 15:23:09;;;;;;;8.63;3.95;;;31.60;52.90;;;;;;4891571;29;20040;-76
2023/10/07 15:25:46;;;;;;;8.02;3.00;;;32.40;51.90;;;;;;4902777;29;20033;-77
2023/10/07 15:28:15;;;;;;;6.73;3.23;;;32.80;50.90;;;;;;4873333;29;20065;-75
2023/10/07 15:30:45;;;;;;;5.45;2.50;;;33.20;50.90;;;;;;4888700;29;20096;-76
2023/10/07 15:33:16;;;;;;;4.82;2.80;;;33.50;50.40;;;;;;4900903;29;20036;-75
2023/10/07 15:35:45;;;;;;;5.32;3.17;;;33.40;49.70;;;;;;4873972;29;20114;-76
2023/10/07 15:38:12;;;;;;;7.03;3.38;;;33.20;49.90;;;;;;4841618;29;20048;-76
2023/10/07 15:40:41;;;;;;;5.32;3.03;;;33.10;50.20;;;;;;4885916;29;20307;-76
2023/10/07 15:43:07;;;;;;;4.53;2.88;;;32.90;50.30;;;;;;4889082;29;20040;-77
2023/10/07 15:45:45;;;;;;;6.03;2.85;;;32.50;50.50;;;;;;4888453;29;20032;-76
2023/10/07 15:48:11;;;;;;;5.70;3.00;;;32.30;50.10;;;;;;4889172;29;20131;-77
2023/10/07 15:50:38;;;;;;;6.82;3.17;;;31.50;50.90;;;;;;4888374;29;20056;-74
2023/10/07 15:53:07;;;;;;;6.00;2.90;;;30.50;52.80;;;;;;4888990;29;20036;-75
2023/10/07 15:55:33;;;;;;;5.63;2.97;;;30.20;53.10;;;;;;4888124;29;20085;-75
2023/10/07 15:57:59;;;;;;;6.10;2.85;;;30.00;52.80;;;;;;4888945;29;20040;-76
2023/10/07 16:00:25;;;;;;;6.43;3.17;;;29.50;53.60;;;;;;4889226;29;20289;-77
2023/10/07 16:02:51;;;;;;;5.43;3.17;;;29.00;54.20;;;;;;4856477;29;20242;-75
2023/10/07 16:05:17;;;;;;;6.20;3.15;;;28.80;54.60;;;;;;4888608;29;20338;-74
2023/10/07 16:07:42;;;;;;;7.43;3.40;;;28.50;55.30;;;;;;4870729;29;20036;-74
2023/10/07 16:10:12;;;;;;;6.38;4.32;;;28.00;56.30;;;;;;4857467;29;20044;-75
2023/10/07 16:12:42;;;;;;;9.38;4.25;;;27.50;56.90;;;;;;4887923;29;20069;-76
2023/10/07 16:15:14;;;;;;;7.40;3.75;;;26.80;57.80;;;;;;4888803;29;20036;-73
2023/10/07 16:17:40;;;;;;;8.95;3.92;;;26.20;59.20;;;;;;4871461;29;20061;-75
2023/10/07 16:20:09;;;;;;;8.25;4.13;;;25.60;60.90;;;;;;4868773;29;20364;-76
2023/10/07 16:22:38;;;;;;;9.25;4.63;;;25.10;61.10;;;;;;4869975;29;20065;-76
2023/10/07 16:25:08;;;;;;;9.23;5.25;;;24.60;62.90;;;;;;4870955;29;20037;-75
2023/10/07 16:27:35;;;;;;;10.15;5.65;;;24.20;63.10;;;;;;4889031;29;20021;-75
2023/10/07 16:30:05;;;;;;;11.90;5.50;;;23.70;65.20;;;;;;4888711;29;20045;-74
2023/10/07 16:32:34;;;;;;;12.75;5.72;;;23.40;66.70;;;;;;4882659;29;20044;-75
2023/10/07 16:35:04;;;;;;;10.27;5.68;;;23.00;68.10;;;;;;4888290;29;20084;-77
2023/10/07 16:37:30;;;;;;;11.70;5.38;;;22.60;69.90;;;;;;4872378;29;20044;-77
2023/10/07 16:39:57;;;;;;;8.77;4.90;;;22.40;70.40;;;;;;4886509;29;20045;-75
2023/10/07 16:42:26;;;;;;;11.23;5.22;;;22.00;71.60;;;;;;4874467;29;20036;-75
2023/10/07 16:44:52;;;;;;;8.20;4.68;;;21.70;72.10;;;;;;4869035;29;20345;-73
2023/10/07 16:47:18;;;;;;;8.38;4.88;;;21.50;73.40;;;;;;4870015;29;20029;-75
2023/10/07 16:49:46;;;;;;;11.05;4.95;;;21.30;74.00;;;;;;4868778;29;20104;-76
2023/10/07 16:52:12;;;;;;;9.75;4.97;;;21.10;75.00;;;;;;4869666;29;20052;-77
2023/10/07 16:54:38;;;;;;;10.27;4.43;;;21.00;75.80;;;;;;4869703;29;20030;-76
2023/10/07 16:57:04;;;;;;;8.23;4.43;;;20.70;75.50;;;;;;4838394;29;20135;-76
2023/10/07 16:59:30;;;;;;;8.65;4.18;;;20.60;76.10;;;;;;4870132;29;20041;-78
2023/10/07 17:02:00;;;;;;;8.20;4.20;;;20.40;76.40;;;;;;4868032;29;20499;-74
2023/10/07 17:04:26;;;;;;;10.38;4.43;;;20.30;76.40;;;;;;4853529;29;20299;-75
2023/10/07 17:06:52;;;;;;;9.02;3.83;;;20.10;76.80;;;;;;4853652;29;20105;-77
2023/10/07 17:09:22;;;;;;;9.02;4.20;;;19.90;77.40;;;;;;4856940;29;20048;-75
2023/10/07 17:11:50;;;;;;;8.45;4.22;;;19.80;77.60;;;;;;4873062;29;20017;-77
2023/10/07 17:14:16;;;;;;;8.25;4.18;;;19.60;78.00;;;;;;4873326;29;20111;-75
2023/10/07 17:16:45;;;;;;;8.02;4.18;;;19.60;78.70;;;;;;4873001;29;20033;-78
2023/10/07 17:19:11;;;;;;;9.10;4.72;;;19.40;78.80;;;;;;4875089;29;20026;-78
2023/10/07 17:21:40;;;;;;;9.15;4.20;;;19.20;79.90;;;;;;4891775;29;20064;-76
2023/10/07 17:24:06;;;;;;;7.50;3.85;;;19.00;79.40;;;;;;4891900;29;20056;-77
2023/10/07 17:26:36;;;;;;;9.40;3.95;;;18.80;79.40;;;;;;4847925;29;20022;-78
2023/10/07 17:29:05;;;;;;;7.45;3.97;;;18.60;79.40;;;;;;4840569;29;20052;-78
2023/10/07 17:31:31;;;;;;;8.77;3.97;;;18.60;80.60;;;;;;4850063;29;20025;-77
2023/10/07 17:33:58;;;;;;;9.25;5.13;;;18.50;81.30;;;;;;4873903;29;20069;-79
2023/10/07 17:36:25;;;;;;;11.68;5.90;;;18.40;81.30;;;;;;4871934;29;20025;-75
2023/10/07 17:38:51;;;;;;;10.63;5.20;;;18.30;81.70;;;;;;4872553;29;20036;-78
2023/10/07 17:41:20;;;;;;;8.15;5.10;;;18.20;81.90;;;;;;4884728;29;20032;-78
2023/10/07 17:43:46;;;;;;;8.45;4.63;;;18.20;82.50;;;;;;4890163;29;20037;-75
2023/10/07 17:46:13;;;;;;;9.50;5.05;;;18.10;83.00;;;;;;4859752;29;20047;-78
2023/10/07 17:48:39;;;;;;;11.40;5.43;;;18.00;83.10;;;;;;4860134;29;20068;-79
2023/10/07 17:51:05;;;;;;;9.52;4.43;;;17.90;83.40;;;;;;4874823;29;20037;-78
2023/10/07 17:53:32;;;;;;;8.30;4.63;;;17.80;83.70;;;;;;4891216;29;20374;-78
2023/10/07 17:56:04;;;;;;;11.38;5.97;;;17.70;84.10;;;;;;4891197;29;20295;-77
2023/10/07 17:58:32;;;;;;;12.30;6.95;;;17.70;84.70;;;;;;4891734;29;20104;-79
2023/10/07 18:00:59;;;;;;;12.48;7.15;;;17.60;85.20;;;;;;4871374;29;20093;-77
2023/10/07 18:03:25;;;;;;;13.73;6.82;;;17.50;86.00;;;;;;4874015;29;20052;-77
2023/10/07 18:06:03;;;;;;;13.38;6.88;;;17.40;86.50;;;;;;4860072;29;20107;-75
2023/10/07 18:08:28;;;;;;;14.17;7.57;;;17.30;87.10;;;;;;4859766;29;20036;-77
2023/10/07 18:10:55;;;;;;;11.73;6.97;;;17.30;87.10;;;;;;4875827;29;20063;-75
2023/10/07 18:13:20;;;;;;;14.18;7.15;;;17.20;87.10;;;;;;4874631;29;20037;-75
2023/10/07 18:15:46;;;;;;;12.60;7.47;;;17.20;87.40;;;;;;4855658;29;20029;-76
2023/10/07 18:18:13;;;;;;;10.43;6.70;;;17.20;88.00;;;;;;4872439;29;20091;-76
2023/10/07 18:20:39;;;;;;;15.05;7.55;;;17.10;88.60;;;;;;4869252;29;20064;-76
2023/10/07 18:23:05;;;;;;;14.15;7.97;;;17.00;88.70;;;;;;4858617;29;20096;-75
2023/10/07 18:25:30;;;;;;;11.07;6.60;;;17.00;89.20;;;;;;4854577;29;20037;-77
2023/10/07 18:27:59;;;;;;;14.27;7.72;;;17.00;88.60;;;;;;4871953;29;20026;-77
2023/10/07 18:30:25;;;;;;;14.68;8.52;;;17.00;88.60;;;;;;4856014;29;20084;-77
2023/10/07 18:32:50;;;;;;;13.77;8.50;;;17.00;88.90;;;;;;4873706;29;20204;-76
2023/10/07 18:35:16;;;;;;;17.23;8.70;;;17.00;89.10;;;;;;4890996;29;20104;-76
2023/10/07 18:37:42;;;;;;;13.55;7.93;;;16.90;89.50;;;;;;4890151;29;20021;-78
2023/10/07 18:40:09;;;;;;;14.32;8.00;;;16.90;89.50;;;;;;4890882;29;20033;-78
2023/10/07 18:42:36;;;;;;;13.68;8.25;;;16.80;89.90;;;;;;4889649;29;20040;-75
2023/10/07 18:45:04;;;;;;;14.32;8.18;;;16.70;90.10;;;;;;4879740;29;20549;-76
2023/10/07 18:47:30;;;;;;;12.82;7.53;;;16.60;90.40;;;;;;4871728;29;20346;-77
2023/10/07 18:49:56;;;;;;;12.20;7.75;;;16.60;90.10;;;;;;4854907;29;20042;-77
2023/10/07 18:52:24;;;;;;;13.13;7.60;;;16.50;90.20;;;;;;4871822;29;20017;-77
2023/10/07 18:54:51;;;;;;;14.25;7.68;;;16.50;90.30;;;;;;4854784;29;20037;-79
2023/10/07 18:57:17;;;;;;;13.93;7.22;;;16.40;90.30;;;;;;4855110;29;20037;-76
2023/10/07 18:59:43;;;;;;;14.15;7.47;;;16.30;90.30;;;;;;4855410;29;20034;-78
2023/10/07 19:02:12;;;;;;;14.50;7.10;;;16.30;90.70;;;;;;4851808;29;20155;-76
2023/10/07 19:04:38;;;;;;;13.43;7.30;;;16.20;90.50;;;;;;4852527;29;20045;-78
2023/10/07 19:07:05;;;;;;;14.13;7.45;;;16.20;90.70;;;;;;4852721;29;20085;-78
2023/10/07 19:09:34;;;;;;;14.90;6.90;;;16.20;90.60;;;;;;4851742;29;20046;-77
2023/10/07 19:12:00;;;;;;;11.85;6.55;;;16.20;90.50;;;;;;4852489;29;20220;-77
2023/10/07 19:14:26;;;;;;;11.07;7.03;;;16.20;90.60;;;;;;4851896;29;20022;-76
2023/10/07 19:16:51;;;;;;;13.00;6.95;;;16.20;90.30;;;;;;4852684;29;20335;-77
2023/10/07 19:19:18;;;;;;;11.82;6.97;;;16.20;90.60;;;;;;4854468;29;20036;-76
2023/10/07 19:21:45;;;;;;;13.40;7.85;;;16.20;90.10;;;;;;4870279;29;20093;-76
2023/10/07 19:24:11;;;;;;;13.35;6.90;;;16.20;90.50;;;;;;4885814;29;20050;-75
2023/10/07 19:26:36;;;;;;;15.27;7.03;;;16.10;90.20;;;;;;4872929;29;20096;-77
2023/10/07 19:29:02;;;;;;;16.25;6.68;;;16.10;90.00;;;;;;4852031;29;20294;-78
2023/10/07 19:31:28;;;;;;;10.63;6.13;;;16.10;90.10;;;;;;4856750;29;20057;-75
2023/10/07 19:33:56;;;;;;;13.77;7.50;;;16.00;90.00;;;;;;4852274;29;20042;-77
2023/10/07 19:36:22;;;;;;;;;;;16.00;90.30;;;;;;4867421;29;20026;-76
2023/10/07 19:38:48;;;;;;;12.18;6.05;;;15.90;90.40;;;;;;4850902;29;19915;-75
2023/10/07 19:41:14;;;;;;;11.77;6.53;;;15.90;90.00;;;;;;4852708;29;20093;-76
2023/10/07 19:43:39;;;;;;;12.25;6.50;;;15.90;90.10;;;;;;4852302;29;20024;-76
2023/10/07 19:46:07;;;;;;;12.13;6.10;;;15.90;90.30;;;;;;4852040;29;20541;-76
2023/10/07 19:48:33;;;;;;;12.07;6.57;;;15.90;90.30;;;;;;4836331;29;20034;-77
2023/10/07 19:50:59;;;;;;;10.60;6.25;;;15.90;90.50;;;;;;4851579;29;20382;-76
2023/10/07 19:53:25;;;;;;;14.00;7.70;;;15.90;90.20;;;;;;4852498;29;20093;-77
2023/10/07 19:55:50;;;;;;;13.40;7.30;;;15.80;90.30;;;;;;4857344;29;20021;-77